sensor_id;sensor_type;location;lat;lon;timestamp;P1;durP1;ratioP1;P2;durP2;ratioP2
9489;SDS011;4783;42.734;23.288;2023-07-13T09:18:35;16.85;;;8.65;;
9489;SDS011;4783;42.734;23.288;2023-07-13T09:23:32;12.90;;;7.55;;
9489;SDS011;4783;42.734;23.288;2023-07-13T09:26:02;15.65;;;7.60;;
9489;SDS011;4783;42.734;23.288;2023-07-13T09:28:29;15.38;;;7.78;;
9489;SDS011;4783;42.734;23.288;2023-07-13T09:31:06;15.88;;;7.35;;
9489;SDS011;4783;42.734;23.288;2023-07-13T09:33:32;13.73;;;7.47;;
9489;SDS011;4783;42.734;23.288;2023-07-13T09:36:00;14.98;;;8.05;;
9489;SDS011;4783;42.734;23.288;2023-07-13T09:38:29;16.38;;;8.07;;
9489;SDS011;4783;42.734;23.288;2023-07-13T09:43:26;18.30;;;9.32;;
9489;SDS011;4783;42.734;23.288;2023-07-13T09:45:53;10.02;;;6.22;;
9489;SDS011;4783;42.734;23.288;2023-07-13T09:48:18;13.77;;;6.43;;
9489;SDS011;4783;42.734;23.288;2023-07-13T09:50:47;7.75;;;5.55;;
9489;SDS011;4783;42.734;23.288;2023-07-13T09:53:24;17.02;;;6.50;;
9489;SDS011;4783;42.734;23.288;2023-07-13T09:55:55;12.63;;;7.35;;
9489;SDS011;4783;42.734;23.288;2023-07-13T09:58:24;13.87;;;6.07;;
9489;SDS011;4783;42.734;23.288;2023-07-13T10:00:57;14.80;;;6.30;;
9489;SDS011;4783;42.734;23.288;2023-07-13T10:03:24;16.20;;;6.32;;
9489;SDS011;4783;42.734;23.288;2023-07-13T10:05:51;14.90;;;5.80;;
9489;SDS011;4783;42.734;23.288;2023-07-13T10:08:25;10.07;;;5.75;;
9489;SDS011;4783;42.734;23.288;2023-07-13T10:11:08;14.15;;;5.90;;
9489;SDS011;4783;42.734;23.288;2023-07-13T10:13:37;11.55;;;5.57;;
9489;SDS011;4783;42.734;23.288;2023-07-13T10:16:05;13.35;;;5.63;;
9489;SDS011;4783;42.734;23.288;2023-07-13T10:18:39;14.35;;;5.55;;
9489;SDS011;4783;42.734;23.288;2023-07-13T10:21:12;12.10;;;5.15;;
9489;SDS011;4783;42.734;23.288;2023-07-13T10:23:38;9.48;;;5.18;;
9489;SDS011;4783;42.734;23.288;2023-07-13T10:26:04;9.32;;;4.88;;
9489;SDS011;4783;42.734;23.288;2023-07-13T10:28:37;16.55;;;4.53;;
9489;SDS011;4783;42.734;23.288;2023-07-13T10:31:13;6.72;;;4.30;;
9489;SDS011;4783;42.734;23.288;2023-07-13T10:33:39;10.20;;;4.57;;
9489;SDS011;4783;42.734;23.288;2023-07-13T10:38:57;9.40;;;4.38;;
9489;SDS011;4783;42.734;23.288;2023-07-13T10:41:24;12.88;;;4.60;;
9489;SDS011;4783;42.734;23.288;2023-07-13T10:43:51;7.25;;;4.55;;
9489;SDS011;4783;42.734;23.288;2023-07-13T10:46:18;14.80;;;5.50;;
9489;SDS011;4783;42.734;23.288;2023-07-13T10:48:44;7.93;;;4.50;;
9489;SDS011;4783;42.734;23.288;2023-07-13T10:51:13;6.90;;;4.80;;
9489;SDS011;4783;42.734;23.288;2023-07-13T10:53:39;12.45;;;4.78;;
9489;SDS011;4783;42.734;23.288;2023-07-13T11:03:31;9.50;;;4.38;;
9489;SDS011;4783;42.734;23.288;2023-07-13T11:06:05;13.40;;;4.55;;
9489;SDS011;4783;42.734;23.288;2023-07-13T11:08:34;9.25;;;4.75;;
9489;SDS011;4783;42.734;23.288;2023-07-13T11:11:02;5.72;;;3.97;;
9489;SDS011;4783;42.734;23.288;2023-07-13T11:13:38;9.98;;;4.60;;
9489;SDS011;4783;42.734;23.288;2023-07-13T11:16:21;9.18;;;4.38;;
9489;SDS011;4783;42.734;23.288;2023-07-13T11:21:29;5.95;;;3.97;;
9489;SDS011;4783;42.734;23.288;2023-07-13T11:24:15;9.68;;;3.95;;
9489;SDS011;4783;42.734;23.288;2023-07-13T11:26:50;10.45;;;4.90;;
9489;SDS011;4783;42.734;23.288;2023-07-13T11:31:57;7.75;;;4.32;;
9489;SDS011;4783;42.734;23.288;2023-07-13T11:34:25;8.02;;;4.68;;
9489;SDS011;4783;42.734;23.288;2023-07-13T11:36:52;8.02;;;4.50;;
9489;SDS011;4783;42.734;23.288;2023-07-13T11:39:36;11.73;;;4.50;;
9489;SDS011;4783;42.734;23.288;2023-07-13T11:42:03;9.57;;;4.63;;
9489;SDS011;4783;42.734;23.288;2023-07-13T11:44:29;10.60;;;4.32;;
9489;SDS011;4783;42.734;23.288;2023-07-13T11:46:56;9.60;;;5.07;;
9489;SDS011;4783;42.734;23.288;2023-07-13T11:49:23;11.23;;;4.72;;
9489;SDS011;4783;42.734;23.288;2023-07-13T11:51:49;9.70;;;4.88;;
9489;SDS011;4783;42.734;23.288;2023-07-13T11:54:32;10.38;;;4.30;;
9489;SDS011;4783;42.734;23.288;2023-07-13T11:56:59;8.32;;;4.13;;
9489;SDS011;4783;42.734;23.288;2023-07-13T11:59:26;8.38;;;4.68;;
9489;SDS011;4783;42.734;23.288;2023-07-13T12:01:52;12.20;;;4.53;;
9489;SDS011;4783;42.734;23.288;2023-07-13T12:04:20;10.50;;;4.57;;
9489;SDS011;4783;42.734;23.288;2023-07-13T12:06:47;13.15;;;4.78;;
9489;SDS011;4783;42.734;23.288;2023-07-13T12:09:17;9.25;;;4.60;;
9489;SDS011;4783;42.734;23.288;2023-07-13T12:11:45;15.52;;;4.53;;
9489;SDS011;4783;42.734;23.288;2023-07-13T12:14:16;17.30;;;4.65;;
9489;SDS011;4783;42.734;23.288;2023-07-13T12:16:42;12.82;;;4.75;;
9489;SDS011;4783;42.734;23.288;2023-07-13T12:19:14;9.75;;;4.15;;
9489;SDS011;4783;42.734;23.288;2023-07-13T12:21:41;10.60;;;4.68;;
9489;SDS011;4783;42.734;23.288;2023-07-13T12:24:13;11.80;;;4.50;;
9489;SDS011;4783;42.734;23.288;2023-07-13T12:26:39;11.02;;;4.78;;
9489;SDS011;4783;42.734;23.288;2023-07-13T12:29:05;13.33;;;4.63;;
9489;SDS011;4783;42.734;23.288;2023-07-13T12:33:57;10.13;;;5.00;;
9489;SDS011;4783;42.734;23.288;2023-07-13T12:36:23;9.95;;;4.20;;
9489;SDS011;4783;42.734;23.288;2023-07-13T12:38:48;14.95;;;4.60;;
9489;SDS011;4783;42.734;23.288;2023-07-13T12:41:14;11.85;;;4.80;;
9489;SDS011;4783;42.734;23.288;2023-07-13T12:43:40;9.68;;;4.28;;
9489;SDS011;4783;42.734;23.288;2023-07-13T12:46:15;9.55;;;4.88;;
9489;SDS011;4783;42.734;23.288;2023-07-13T12:48:41;8.27;;;4.25;;
9489;SDS011;4783;42.734;23.288;2023-07-13T12:51:09;10.35;;;4.28;;
9489;SDS011;4783;42.734;23.288;2023-07-13T12:53:35;9.48;;;4.65;;
9489;SDS011;4783;42.734;23.288;2023-07-13T12:56:04;6.53;;;4.22;;
9489;SDS011;4783;42.734;23.288;2023-07-13T12:58:32;9.95;;;4.30;;
9489;SDS011;4783;42.734;23.288;2023-07-13T13:00:58;15.68;;;4.55;;
9489;SDS011;4783;42.734;23.288;2023-07-13T13:03:33;10.70;;;4.60;;
9489;SDS011;4783;42.734;23.288;2023-07-13T13:08:25;6.70;;;4.07;;
9489;SDS011;4783;42.734;23.288;2023-07-13T13:10:50;7.63;;;4.22;;
9489;SDS011;4783;42.734;23.288;2023-07-13T13:13:15;6.53;;;4.60;;
9489;SDS011;4783;42.734;23.288;2023-07-13T13:15:41;7.30;;;4.28;;
9489;SDS011;4783;42.734;23.288;2023-07-13T13:18:15;7.13;;;4.13;;
9489;SDS011;4783;42.734;23.288;2023-07-13T13:20:40;10.90;;;4.78;;
9489;SDS011;4783;42.734;23.288;2023-07-13T13:23:08;8.95;;;4.53;;
9489;SDS011;4783;42.734;23.288;2023-07-13T13:25:35;12.32;;;4.22;;
9489;SDS011;4783;42.734;23.288;2023-07-13T13:28:01;10.13;;;4.93;;
9489;SDS011;4783;42.734;23.288;2023-07-13T13:30:26;10.23;;;4.38;;
9489;SDS011;4783;42.734;23.288;2023-07-13T13:32:52;10.02;;;4.50;;
9489;SDS011;4783;42.734;23.288;2023-07-13T13:35:18;10.20;;;4.80;;
9489;SDS011;4783;42.734;23.288;2023-07-13T13:37:44;14.55;;;4.40;;
9489;SDS011;4783;42.734;23.288;2023-07-13T13:40:13;15.68;;;4.38;;
9489;SDS011;4783;42.734;23.288;2023-07-13T13:42:39;10.50;;;4.47;;
9489;SDS011;4783;42.734;23.288;2023-07-13T13:45:04;15.32;;;4.13;;
9489;SDS011;4783;42.734;23.288;2023-07-13T13:47:33;14.85;;;4.35;;
9489;SDS011;4783;42.734;23.288;2023-07-13T13:49:59;8.13;;;4.22;;
9489;SDS011;4783;42.734;23.288;2023-07-13T13:52:25;13.43;;;4.40;;
9489;SDS011;4783;42.734;23.288;2023-07-13T13:54:51;8.13;;;4.22;;
9489;SDS011;4783;42.734;23.288;2023-07-13T13:57:21;8.75;;;4.28;;
9489;SDS011;4783;42.734;23.288;2023-07-13T13:59:48;14.95;;;4.90;;
9489;SDS011;4783;42.734;23.288;2023-07-13T14:02:21;11.50;;;4.25;;
9489;SDS011;4783;42.734;23.288;2023-07-13T14:04:47;9.13;;;4.43;;
9489;SDS011;4783;42.734;23.288;2023-07-13T14:07:13;10.45;;;4.55;;
9489;SDS011;4783;42.734;23.288;2023-07-13T14:09:49;13.70;;;4.60;;
9489;SDS011;4783;42.734;23.288;2023-07-13T14:12:15;12.05;;;5.05;;
9489;SDS011;4783;42.734;23.288;2023-07-13T14:14:40;9.23;;;4.70;;
9489;SDS011;4783;42.734;23.288;2023-07-13T14:17:11;11.75;;;4.30;;
9489;SDS011;4783;42.734;23.288;2023-07-13T14:19:42;13.30;;;4.70;;
9489;SDS011;4783;42.734;23.288;2023-07-13T14:22:07;8.33;;;4.50;;
9489;SDS011;4783;42.734;23.288;2023-07-13T14:24:32;12.13;;;5.10;;
9489;SDS011;4783;42.734;23.288;2023-07-13T14:26:58;10.87;;;4.07;;
9489;SDS011;4783;42.734;23.288;2023-07-13T14:29:23;9.32;;;4.53;;
9489;SDS011;4783;42.734;23.288;2023-07-13T14:31:50;8.25;;;4.47;;
9489;SDS011;4783;42.734;23.288;2023-07-13T14:34:15;9.93;;;5.50;;
9489;SDS011;4783;42.734;23.288;2023-07-13T14:36:47;9.75;;;4.82;;
9489;SDS011;4783;42.734;23.288;2023-07-13T14:39:15;8.57;;;4.38;;
9489;SDS011;4783;42.734;23.288;2023-07-13T14:41:41;11.02;;;4.35;;
9489;SDS011;4783;42.734;23.288;2023-07-13T14:44:13;9.37;;;4.33;;
9489;SDS011;4783;42.734;23.288;2023-07-13T14:46:38;11.50;;;5.10;;
9489;SDS011;4783;42.734;23.288;2023-07-13T14:51:35;7.45;;;4.22;;
9489;SDS011;4783;42.734;23.288;2023-07-13T14:54:02;10.38;;;4.50;;
9489;SDS011;4783;42.734;23.288;2023-07-13T14:56:28;10.23;;;4.30;;
9489;SDS011;4783;42.734;23.288;2023-07-13T14:58:53;10.77;;;4.33;;
9489;SDS011;4783;42.734;23.288;2023-07-13T15:01:18;10.15;;;4.65;;
9489;SDS011;4783;42.734;23.288;2023-07-13T15:03:45;7.88;;;4.00;;
9489;SDS011;4783;42.734;23.288;2023-07-13T15:06:11;11.55;;;4.68;;
9489;SDS011;4783;42.734;23.288;2023-07-13T15:08:36;13.57;;;4.10;;
9489;SDS011;4783;42.734;23.288;2023-07-13T15:11:02;13.70;;;4.45;;
9489;SDS011;4783;42.734;23.288;2023-07-13T15:13:29;10.90;;;4.43;;
9489;SDS011;4783;42.734;23.288;2023-07-13T15:15:55;13.10;;;4.35;;
9489;SDS011;4783;42.734;23.288;2023-07-13T15:18:21;9.63;;;4.35;;
9489;SDS011;4783;42.734;23.288;2023-07-13T15:20:47;9.95;;;4.25;;
9489;SDS011;4783;42.734;23.288;2023-07-13T15:23:14;9.38;;;3.90;;
9489;SDS011;4783;42.734;23.288;2023-07-13T15:25:40;6.65;;;4.28;;
9489;SDS011;4783;42.734;23.288;2023-07-13T15:28:05;11.73;;;3.85;;
9489;SDS011;4783;42.734;23.288;2023-07-13T15:30:40;9.33;;;4.70;;
9489;SDS011;4783;42.734;23.288;2023-07-13T15:33:11;12.07;;;4.70;;
9489;SDS011;4783;42.734;23.288;2023-07-13T15:35:36;10.27;;;4.63;;
9489;SDS011;4783;42.734;23.288;2023-07-13T15:38:05;13.80;;;4.63;;
9489;SDS011;4783;42.734;23.288;2023-07-13T15:40:34;12.73;;;4.32;;
9489;SDS011;4783;42.734;23.288;2023-07-13T15:42:59;10.07;;;3.70;;
9489;SDS011;4783;42.734;23.288;2023-07-13T15:45:25;8.80;;;4.10;;
9489;SDS011;4783;42.734;23.288;2023-07-13T15:47:50;15.93;;;3.88;;
9489;SDS011;4783;42.734;23.288;2023-07-13T15:50:20;13.82;;;4.40;;
9489;SDS011;4783;42.734;23.288;2023-07-13T15:52:50;12.90;;;4.25;;
9489;SDS011;4783;42.734;23.288;2023-07-13T15:55:16;10.77;;;4.35;;
9489;SDS011;4783;42.734;23.288;2023-07-13T15:57:51;8.00;;;4.45;;
9489;SDS011;4783;42.734;23.288;2023-07-13T16:00:23;14.20;;;4.65;;
9489;SDS011;4783;42.734;23.288;2023-07-13T16:02:49;8.73;;;3.95;;
9489;SDS011;4783;42.734;23.288;2023-07-13T16:05:15;12.15;;;4.78;;
9489;SDS011;4783;42.734;23.288;2023-07-13T16:07:42;14.70;;;4.95;;
9489;SDS011;4783;42.734;23.288;2023-07-13T16:10:09;11.05;;;4.10;;
9489;SDS011;4783;42.734;23.288;2023-07-13T16:12:37;10.82;;;4.38;;
9489;SDS011;4783;42.734;23.288;2023-07-13T16:15:03;11.83;;;4.53;;
9489;SDS011;4783;42.734;23.288;2023-07-13T16:17:28;17.67;;;3.65;;
9489;SDS011;4783;42.734;23.288;2023-07-13T16:19:53;8.20;;;4.30;;
9489;SDS011;4783;42.734;23.288;2023-07-13T16:22:21;12.20;;;4.07;;
9489;SDS011;4783;42.734;23.288;2023-07-13T16:24:46;7.25;;;3.92;;
9489;SDS011;4783;42.734;23.288;2023-07-13T16:27:12;8.40;;;3.70;;
9489;SDS011;4783;42.734;23.288;2023-07-13T16:29:37;9.90;;;4.15;;
9489;SDS011;4783;42.734;23.288;2023-07-13T16:32:08;11.82;;;4.13;;
9489;SDS011;4783;42.734;23.288;2023-07-13T16:34:35;11.38;;;4.30;;
9489;SDS011;4783;42.734;23.288;2023-07-13T16:37:01;7.95;;;3.70;;
9489;SDS011;4783;42.734;23.288;2023-07-13T16:39:27;17.80;;;4.55;;
9489;SDS011;4783;42.734;23.288;2023-07-13T16:41:57;14.43;;;4.40;;
9489;SDS011;4783;42.734;23.288;2023-07-13T16:44:22;10.95;;;4.10;;
9489;SDS011;4783;42.734;23.288;2023-07-13T16:46:49;14.23;;;4.32;;
9489;SDS011;4783;42.734;23.288;2023-07-13T16:51:43;14.55;;;4.80;;
9489;SDS011;4783;42.734;23.288;2023-07-13T16:54:09;11.77;;;4.28;;
9489;SDS011;4783;42.734;23.288;2023-07-13T16:56:34;11.00;;;4.38;;
9489;SDS011;4783;42.734;23.288;2023-07-13T16:58:59;17.42;;;5.00;;
